createdAt,value
2018-07-11T00:02:15.582Z,7.20
2018-07-11T00:04:44.084Z,6.83
2018-07-11T00:07:12.906Z,8.13
2018-07-11T00:09:41.328Z,9.60
2018-07-11T00:12:09.756Z,7.80
2018-07-11T00:14:38.192Z,5.93
2018-07-11T00:17:10.800Z,6.23
2018-07-11T00:19:39.322Z,5.77
2018-07-11T00:22:07.805Z,6.93
2018-07-11T00:24:36.239Z,6.30
2018-07-11T00:27:04.879Z,6.30
2018-07-11T00:29:34.276Z,6.20
2018-07-11T00:32:02.780Z,10.60
2018-07-11T00:34:31.248Z,5.30
2018-07-11T00:36:59.724Z,6.97
2018-07-11T00:39:28.279Z,5.47
2018-07-11T00:41:56.728Z,5.90
2018-07-11T00:44:25.207Z,6.83
2018-07-11T00:46:53.700Z,6.67
2018-07-11T00:49:22.227Z,9.30
2018-07-11T00:51:50.763Z,7.13
2018-07-11T00:54:19.546Z,9.17
2018-07-11T00:56:48.016Z,6.73
2018-07-11T00:59:28.404Z,6.00
2018-07-11T01:02:05.632Z,7.53
2018-07-11T01:04:34.315Z,6.83
2018-07-11T01:07:04.584Z,8.57
2018-07-11T01:09:37.443Z,6.10
2018-07-11T01:12:06.404Z,7.17
2018-07-11T01:14:34.953Z,6.53
2018-07-11T01:17:07.304Z,6.83
2018-07-11T01:19:36.439Z,6.90
2018-07-11T01:22:04.864Z,6.40
2018-07-11T01:24:33.503Z,6.03
2018-07-11T01:27:02.202Z,5.70
2018-07-11T01:29:30.599Z,6.03
2018-07-11T01:31:59.073Z,7.20
2018-07-11T01:34:27.506Z,7.13
2018-07-11T01:36:56.205Z,8.60
2018-07-11T01:39:24.665Z,5.67
2018-07-11T01:41:53.134Z,6.60
2018-07-11T01:44:21.603Z,7.27
2018-07-11T01:46:51.293Z,5.47
2018-07-11T01:49:19.743Z,5.53
2018-07-11T01:51:59.464Z,5.17
2018-07-11T01:54:28.679Z,8.40
2018-07-11T01:56:57.145Z,7.00
2018-07-11T01:59:28.775Z,6.90
2018-07-11T02:01:57.231Z,6.57
2018-07-11T02:04:25.735Z,7.17
2018-07-11T02:06:54.184Z,7.80
2018-07-11T02:09:22.667Z,8.73
2018-07-11T02:11:51.129Z,7.33
2018-07-11T02:14:19.580Z,6.77
2018-07-11T02:16:48.120Z,7.23
2018-07-11T02:19:19.128Z,9.10
2018-07-11T02:21:48.476Z,10.23
2018-07-11T02:24:17.052Z,7.20
2018-07-11T02:26:45.464Z,7.23
2018-07-11T02:29:13.944Z,7.07
2018-07-11T02:31:42.480Z,6.47
2018-07-11T02:34:10.974Z,8.63
2018-07-11T02:36:39.377Z,8.00
2018-07-11T02:39:07.783Z,7.33
2018-07-11T02:41:36.195Z,7.40
2018-07-11T02:44:04.357Z,10.17
2018-07-11T02:46:38.197Z,8.87
2018-07-11T02:49:06.801Z,7.10
2018-07-11T02:51:35.287Z,8.60
2018-07-11T02:54:03.743Z,10.23
2018-07-11T02:56:32.141Z,9.63
2018-07-11T02:59:00.705Z,9.80
2018-07-11T03:01:29.167Z,7.10
2018-07-11T03:03:57.630Z,7.73
2018-07-11T03:06:26.216Z,7.43
2018-07-11T03:08:54.655Z,7.40
2018-07-11T03:11:23.077Z,9.23
2018-07-11T03:13:51.515Z,8.73
2018-07-11T03:16:20.017Z,9.23
2018-07-11T03:18:48.418Z,10.13
2018-07-11T03:21:16.964Z,10.53
2018-07-11T03:23:45.422Z,9.30
2018-07-11T03:26:14.001Z,8.73
2018-07-11T03:28:42.456Z,10.20
2018-07-11T03:31:10.860Z,10.60
2018-07-11T03:33:39.295Z,9.30
2018-07-11T03:36:07.756Z,9.57
2018-07-11T03:38:36.223Z,10.53
2018-07-11T03:41:04.699Z,11.27
2018-07-11T03:43:33.143Z,9.13
2018-07-11T03:46:01.774Z,10.13
2018-07-11T03:48:30.400Z,11.70
2018-07-11T03:50:58.830Z,8.67
2018-07-11T03:53:27.272Z,12.50
2018-07-11T03:55:55.773Z,11.47
2018-07-11T03:58:24.217Z,13.53
2018-07-11T04:00:53.773Z,12.20
2018-07-11T04:03:22.385Z,12.60
2018-07-11T04:05:50.798Z,11.93
2018-07-11T04:08:19.200Z,13.30
2018-07-11T04:10:47.624Z,13.80
2018-07-11T04:13:17.720Z,16.13
2018-07-11T04:15:46.413Z,17.03
2018-07-11T04:18:20.864Z,15.30
2018-07-11T04:20:49.028Z,15.30
2018-07-11T04:23:17.445Z,16.30
2018-07-11T04:25:45.996Z,14.17
2018-07-11T04:28:14.404Z,17.10
2018-07-11T04:30:43.620Z,15.23
2018-07-11T04:33:12.156Z,13.50
2018-07-11T04:35:40.642Z,16.27
2018-07-11T04:38:09.130Z,17.33
2018-07-11T04:40:37.707Z,15.53
2018-07-11T04:43:06.452Z,15.67
2018-07-11T04:45:35.017Z,19.60
2018-07-11T04:48:03.720Z,21.00
2018-07-11T04:50:32.288Z,19.47
2018-07-11T04:53:02.019Z,18.50
2018-07-11T04:55:31.083Z,19.90
2018-07-11T04:57:59.552Z,14.20
2018-07-11T05:00:28.024Z,17.40
2018-07-11T05:02:56.874Z,15.40
2018-07-11T05:05:25.560Z,19.90
2018-07-11T05:07:54.220Z,19.20
2018-07-11T05:10:22.844Z,15.30
2018-07-11T05:12:51.241Z,17.10
2018-07-11T05:15:19.768Z,16.17
2018-07-11T05:17:48.177Z,20.20
2018-07-11T05:20:16.620Z,16.80
2018-07-11T05:22:45.117Z,21.03
2018-07-11T05:25:13.559Z,17.23
2018-07-11T05:27:41.963Z,14.23
2018-07-11T05:30:10.421Z,21.50
2018-07-11T05:32:38.820Z,22.40
2018-07-11T05:35:07.298Z,19.87
2018-07-11T05:37:36.646Z,18.30
2018-07-11T05:40:05.216Z,18.83
2018-07-11T05:42:33.720Z,19.50
2018-07-11T05:45:02.317Z,20.83
2018-07-11T05:47:30.818Z,22.80
2018-07-11T05:49:59.307Z,24.27
2018-07-11T05:52:27.775Z,22.80
2018-07-11T05:54:56.170Z,24.60
2018-07-11T05:57:24.587Z,25.20
2018-07-11T05:59:53.906Z,22.70
2018-07-11T06:02:22.326Z,24.53
2018-07-11T06:04:50.886Z,31.83
2018-07-11T06:07:19.428Z,30.43
2018-07-11T06:09:47.880Z,26.67
2018-07-11T06:12:16.328Z,26.27
2018-07-11T06:14:44.826Z,28.90
2018-07-11T06:17:13.234Z,28.43
2018-07-11T06:19:41.636Z,28.43
2018-07-11T06:22:10.073Z,31.10
2018-07-11T06:24:38.496Z,27.30
2018-07-11T06:27:07.024Z,28.60
2018-07-11T06:29:35.440Z,31.60
2018-07-11T06:32:04.486Z,32.27
2018-07-11T06:34:32.961Z,28.93
2018-07-11T06:37:01.413Z,27.90
2018-07-11T06:39:29.563Z,27.73
2018-07-11T06:41:58.120Z,27.83
2018-07-11T06:44:26.677Z,27.43
2018-07-11T06:46:55.119Z,29.03
2018-07-11T06:49:23.581Z,27.67
2018-07-11T06:51:52.053Z,26.90
2018-07-11T06:54:20.564Z,27.63
2018-07-11T06:56:48.968Z,27.27
2018-07-11T06:59:17.916Z,26.73
2018-07-11T07:01:46.340Z,29.97
2018-07-11T07:04:14.816Z,24.77
2018-07-11T07:06:43.210Z,28.80
2018-07-11T07:09:11.682Z,29.73
2018-07-11T07:11:40.180Z,22.70
2018-07-11T07:14:08.673Z,21.80
2018-07-11T07:16:37.176Z,22.90
2018-07-11T07:19:05.784Z,22.30
2018-07-11T07:21:34.245Z,27.77
2018-07-11T07:24:02.659Z,24.30
2018-07-11T07:26:31.122Z,28.90
2018-07-11T07:28:59.579Z,28.37
2018-07-11T07:31:27.975Z,30.60
2018-07-11T07:33:56.388Z,24.93
2018-07-11T07:36:24.808Z,25.30
2018-07-11T07:38:53.328Z,26.80
2018-07-11T07:41:21.765Z,28.50
2018-07-11T07:43:50.237Z,26.80
2018-07-11T07:46:18.778Z,24.40
2018-07-11T07:48:47.328Z,23.73
2018-07-11T07:51:15.984Z,24.43
2018-07-11T07:53:44.466Z,25.60
2018-07-11T07:56:12.938Z,23.73
2018-07-11T07:58:41.416Z,25.43
2018-07-11T08:01:09.904Z,23.00
2018-07-11T08:03:38.590Z,25.00
2018-07-11T08:06:07.004Z,22.30
2018-07-11T08:08:35.417Z,23.77
2018-07-11T08:11:04.029Z,24.63
2018-07-11T08:13:32.568Z,24.90
2018-07-11T08:16:01.720Z,23.23
2018-07-11T08:18:30.180Z,22.30
2018-07-11T08:20:58.815Z,22.67
2018-07-11T08:23:40.551Z,26.93
2018-07-11T08:26:20.527Z,23.67
2018-07-11T08:29:03.644Z,23.43
2018-07-11T08:31:50.853Z,22.10
2018-07-11T08:34:36.017Z,23.50
2018-07-11T08:37:18.694Z,26.93
2018-07-11T08:41:03.076Z,23.97
2018-07-11T08:44:11.034Z,25.00
2018-07-11T08:47:21.844Z,21.90
2018-07-11T08:52:04.786Z,18.00
2018-07-11T08:56:47.136Z,19.53
2018-07-11T09:01:34.003Z,19.20
2018-07-11T09:06:16.037Z,18.13
2018-07-11T09:08:54.087Z,21.83
2018-07-11T09:12:36.360Z,19.20
2018-07-11T09:17:15.936Z,16.93
2018-07-11T09:19:54.636Z,15.43
2018-07-11T09:23:36.073Z,15.83
2018-07-11T09:26:05.164Z,16.63
2018-07-11T09:28:33.562Z,18.87
2018-07-11T09:31:02.007Z,17.30
2018-07-11T09:33:30.494Z,19.47
2018-07-11T09:35:58.964Z,16.17
2018-07-11T09:38:27.391Z,13.40
2018-07-11T09:40:55.947Z,17.27
2018-07-11T09:43:24.398Z,13.80
2018-07-11T09:45:52.959Z,13.93
2018-07-11T09:48:21.489Z,11.77
2018-07-11T09:50:50.155Z,13.37
2018-07-11T09:53:18.703Z,10.00
2018-07-11T09:55:47.153Z,11.07
2018-07-11T09:58:15.743Z,13.27
2018-07-11T10:00:49.533Z,8.40
2018-07-11T10:03:18.641Z,10.33
2018-07-11T10:05:47.111Z,12.10
2018-07-11T10:08:16.065Z,10.47
2018-07-11T10:10:44.663Z,11.83
2018-07-11T10:13:19.960Z,9.50
2018-07-11T10:15:48.366Z,9.23
2018-07-11T10:18:16.811Z,10.40
2018-07-11T10:20:45.302Z,8.70
2018-07-11T10:23:13.776Z,17.83
2018-07-11T10:25:44.088Z,9.10
2018-07-11T10:28:18.616Z,16.00
2018-07-11T10:30:47.208Z,9.83
2018-07-11T10:33:15.643Z,12.70
2018-07-11T10:35:44.116Z,10.87
2018-07-11T10:38:13.401Z,10.50
2018-07-11T10:40:41.891Z,13.77
2018-07-11T10:43:10.623Z,11.13
2018-07-11T10:45:39.476Z,7.70
2018-07-11T10:48:08.182Z,12.30
2018-07-11T10:50:36.736Z,9.93
2018-07-11T10:53:05.336Z,14.10
2018-07-11T10:55:33.748Z,16.00
2018-07-11T10:58:02.314Z,14.17
2018-07-11T11:00:36.663Z,12.53
2018-07-11T11:02:59.694Z,12.13
2018-07-11T11:05:28.171Z,9.87
2018-07-11T11:07:56.591Z,12.33
2018-07-11T11:10:25.964Z,10.87
2018-07-11T11:12:54.436Z,12.40
2018-07-11T11:15:22.916Z,9.83
2018-07-11T11:17:51.302Z,9.03
2018-07-11T11:20:19.722Z,17.40
2018-07-11T11:22:48.211Z,13.03
2018-07-11T11:25:16.756Z,11.53
2018-07-11T11:27:45.246Z,11.70
2018-07-11T11:30:13.658Z,10.90
2018-07-11T11:32:42.158Z,13.00
2018-07-11T11:35:10.671Z,17.17
2018-07-11T11:37:39.241Z,15.07
2018-07-11T11:40:07.670Z,11.30
2018-07-11T11:42:36.541Z,15.30
2018-07-11T11:45:05.040Z,12.20
2018-07-11T11:47:34.328Z,9.53
2018-07-11T11:50:02.773Z,11.00
2018-07-11T11:52:31.184Z,13.03
2018-07-11T11:54:59.656Z,6.17
2018-07-11T11:57:28.199Z,7.90
2018-07-11T11:59:56.648Z,7.97
2018-07-11T12:02:25.180Z,7.40
2018-07-11T12:04:53.765Z,9.80
2018-07-11T12:07:22.221Z,9.20
2018-07-11T12:09:50.677Z,6.33
2018-07-11T12:12:19.168Z,11.00
2018-07-11T12:14:47.600Z,6.10
2018-07-11T12:17:16.109Z,9.20
2018-07-11T12:19:45.213Z,6.03
2018-07-11T12:22:25.077Z,7.10
2018-07-11T12:24:54.236Z,8.50
2018-07-11T12:27:22.726Z,4.50
2018-07-11T12:29:52.434Z,4.13
2018-07-11T12:32:21.280Z,6.83
2018-07-11T12:34:49.763Z,5.13
2018-07-11T12:37:18.846Z,4.90
2018-07-11T12:39:47.689Z,4.10
2018-07-11T12:42:16.228Z,7.23
2018-07-11T12:44:44.926Z,8.20
2018-07-11T12:47:19.324Z,4.83
2018-07-11T12:49:47.860Z,7.37
2018-07-11T12:52:16.417Z,9.03
2018-07-11T12:54:44.980Z,4.90
2018-07-11T12:57:13.575Z,8.70
2018-07-11T12:59:42.079Z,5.50
2018-07-11T13:02:10.963Z,5.87
2018-07-11T13:04:39.445Z,5.27
2018-07-11T13:07:08.165Z,3.37
2018-07-11T13:09:37.701Z,3.70
2018-07-11T13:12:06.818Z,6.10
2018-07-11T13:14:35.515Z,6.33
2018-07-11T13:17:04.042Z,4.07
2018-07-11T13:19:32.425Z,6.20
2018-07-11T13:22:00.845Z,4.97
2018-07-11T13:24:29.263Z,5.27
2018-07-11T13:26:57.740Z,8.20
2018-07-11T13:29:26.285Z,6.63
2018-07-11T13:31:54.877Z,5.20
2018-07-11T13:34:23.327Z,4.90
2018-07-11T13:36:52.783Z,5.60
2018-07-11T13:39:22.318Z,9.40
2018-07-11T13:41:51.552Z,10.63
2018-07-11T13:44:20.084Z,10.90
2018-07-11T13:46:48.694Z,5.23
2018-07-11T13:49:17.096Z,6.97
2018-07-11T13:51:45.788Z,7.97
2018-07-11T13:54:14.085Z,6.70
2018-07-11T13:56:42.562Z,8.40
2018-07-11T13:59:11.045Z,6.37
2018-07-11T14:01:39.508Z,7.27
2018-07-11T14:04:08.079Z,7.13
2018-07-11T14:06:36.621Z,6.03
2018-07-11T14:09:05.149Z,4.10
2018-07-11T14:11:33.641Z,7.10
2018-07-11T14:14:02.690Z,5.20
2018-07-11T14:16:31.137Z,7.63
2018-07-11T14:18:59.598Z,33.63
2018-07-11T14:21:28.029Z,5.60
2018-07-11T14:23:57.912Z,8.87
2018-07-11T14:26:27.412Z,13.13
2018-07-11T14:28:55.850Z,8.47
2018-07-11T14:31:30.277Z,9.73
2018-07-11T14:34:01.205Z,8.57
2018-07-11T14:36:29.655Z,5.00
2018-07-11T14:38:58.180Z,9.47
2018-07-11T14:41:26.693Z,5.23
2018-07-11T14:43:57.364Z,8.60
2018-07-11T14:46:27.377Z,8.13
2018-07-11T14:48:55.834Z,5.57
2018-07-11T14:51:24.568Z,6.67
2018-07-11T14:53:54.276Z,6.63
2018-07-11T14:56:22.829Z,10.13
2018-07-11T14:58:53.677Z,5.30
2018-07-11T15:01:22.728Z,5.60
2018-07-11T15:03:51.274Z,5.67
2018-07-11T15:06:20.014Z,17.13
2018-07-11T15:08:48.827Z,8.53
2018-07-11T15:11:17.285Z,6.30
2018-07-11T15:13:45.947Z,7.20
2018-07-11T15:16:15.301Z,8.83
2018-07-11T15:18:43.771Z,8.43
2018-07-11T15:21:12.735Z,7.40
2018-07-11T15:23:41.189Z,11.07
2018-07-11T15:26:09.692Z,9.90
2018-07-11T15:28:38.238Z,10.40
2018-07-11T15:31:06.887Z,8.20
2018-07-11T15:33:35.429Z,12.80
2018-07-11T15:36:03.871Z,11.13
2018-07-11T15:38:32.389Z,9.43
2018-07-11T15:41:01.565Z,11.70
2018-07-11T15:43:30.597Z,13.00
2018-07-11T15:45:59.770Z,10.03
2018-07-11T15:48:28.669Z,11.33
2018-07-11T15:50:57.374Z,14.60
2018-07-11T15:53:28.985Z,10.07
2018-07-11T15:55:57.511Z,8.73
2018-07-11T15:58:27.479Z,10.87
2018-07-11T16:01:00.007Z,10.30
2018-07-11T16:03:28.481Z,10.60
2018-07-11T16:05:57.064Z,9.20
2018-07-11T16:08:25.435Z,8.13
2018-07-11T16:10:57.401Z,11.03
2018-07-11T16:13:25.801Z,8.10
2018-07-11T16:15:54.377Z,8.43
2018-07-11T16:18:22.890Z,13.27
2018-07-11T16:20:51.897Z,8.63
2018-07-11T16:23:20.331Z,12.53
2018-07-11T16:25:48.803Z,12.60
2018-07-11T16:28:17.313Z,13.90
2018-07-11T16:30:45.767Z,16.70
2018-07-11T16:33:14.275Z,18.67
2018-07-11T16:35:42.664Z,11.67
2018-07-11T16:38:11.265Z,11.17
2018-07-11T16:40:39.693Z,16.30
2018-07-11T16:43:08.149Z,19.47
2018-07-11T16:45:37.115Z,11.37
2018-07-11T16:48:05.631Z,12.50
2018-07-11T16:50:35.259Z,9.83
2018-07-11T16:53:04.612Z,9.17
2018-07-11T16:55:34.981Z,14.17
2018-07-11T16:58:03.506Z,11.60
2018-07-11T17:00:33.695Z,10.93
2018-07-11T17:03:06.611Z,11.27
2018-07-11T17:06:03.469Z,10.10
2018-07-11T17:08:33.284Z,11.97
2018-07-11T17:11:08.099Z,10.30
2018-07-11T17:13:36.785Z,9.70
2018-07-11T17:16:05.405Z,12.10
2018-07-11T17:18:45.151Z,12.50
2018-07-11T17:21:23.460Z,14.93
2018-07-11T17:23:55.171Z,15.53
2018-07-11T17:26:25.976Z,25.10
2018-07-11T17:28:56.224Z,38.97
2018-07-11T17:31:24.998Z,89.33
2018-07-11T17:33:53.453Z,105.60
2018-07-11T17:36:22.015Z,153.17
2018-07-11T17:38:50.630Z,67.20
2018-07-11T17:41:19.098Z,73.43
2018-07-11T17:43:52.079Z,62.80
2018-07-11T17:46:21.789Z,84.97
2018-07-11T17:49:06.481Z,151.77
2018-07-11T17:51:46.381Z,113.77
2018-07-11T17:54:14.944Z,86.60
2018-07-11T17:56:52.323Z,40.17
2018-07-11T18:01:31.498Z,81.50
2018-07-11T18:04:15.186Z,35.57
2018-07-11T18:07:02.291Z,47.13
2018-07-11T18:10:08.652Z,54.10
2018-07-11T18:12:52.330Z,37.17
2018-07-11T18:15:49.824Z,50.50
2018-07-11T18:19:39.370Z,72.67
2018-07-11T18:22:21.722Z,45.90
2018-07-11T18:24:57.876Z,41.83
2018-07-11T18:28:34.774Z,38.57
2018-07-11T18:31:13.252Z,27.33
2018-07-11T18:35:14.252Z,27.40
2018-07-11T18:37:52.290Z,44.23
2018-07-11T18:40:41.452Z,31.20
2018-07-11T18:45:27.404Z,26.63
2018-07-11T18:48:25.557Z,26.33
2018-07-11T18:51:02.521Z,29.87
2018-07-11T18:53:48.088Z,32.90
2018-07-11T18:56:28.303Z,31.67
2018-07-11T18:59:09.553Z,24.50
2018-07-11T19:03:54.889Z,29.07
2018-07-11T19:06:31.802Z,33.10
2018-07-11T19:09:06.579Z,30.00
2018-07-11T19:12:48.804Z,27.80
2018-07-11T19:16:25.389Z,27.90
2018-07-11T19:19:03.660Z,25.03
2018-07-11T19:21:41.187Z,18.47
2018-07-11T19:24:16.580Z,18.27
2018-07-11T19:26:53.925Z,20.23
2018-07-11T19:30:29.984Z,27.57
2018-07-11T19:33:07.458Z,19.33
2018-07-11T19:35:43.198Z,14.97
2018-07-11T19:38:40.150Z,15.87
2018-07-11T19:41:17.632Z,18.33
2018-07-11T19:43:53.668Z,19.37
2018-07-11T19:46:45.356Z,14.90
2018-07-11T19:49:25.388Z,16.77
2018-07-11T19:52:37.088Z,18.37
2018-07-11T19:57:13.562Z,35.73
2018-07-11T19:59:42.132Z,43.47
2018-07-11T20:02:11.014Z,39.80
2018-07-11T20:04:39.420Z,42.33
2018-07-11T20:07:08.374Z,36.07
2018-07-11T20:09:36.822Z,21.60
2018-07-11T20:12:05.828Z,19.67
2018-07-11T20:14:34.276Z,18.07
2018-07-11T20:17:03.208Z,16.40
2018-07-11T20:19:31.656Z,18.43
2018-07-11T20:22:00.110Z,20.80
2018-07-11T20:24:28.836Z,16.50
2018-07-11T20:26:57.771Z,18.73
2018-07-11T20:29:26.272Z,16.23
2018-07-11T20:31:54.834Z,17.90
2018-07-11T20:34:23.316Z,18.80
2018-07-11T20:36:51.826Z,20.10
2018-07-11T20:39:20.648Z,19.57
2018-07-11T20:41:49.217Z,18.20
2018-07-11T20:44:17.684Z,18.03
2018-07-11T20:46:46.725Z,17.20
2018-07-11T20:49:22.718Z,19.03
2018-07-11T20:51:51.861Z,17.47
2018-07-11T20:54:20.382Z,18.53
2018-07-11T20:56:48.768Z,19.03
2018-07-11T20:59:28.512Z,19.00
2018-07-11T21:02:11.048Z,22.00
2018-07-11T21:07:03.580Z,20.33
2018-07-11T21:10:45.680Z,18.17
2018-07-11T21:15:29.570Z,20.60
2018-07-11T21:19:06.680Z,18.57
2018-07-11T21:21:35.986Z,20.00
2018-07-11T21:24:05.318Z,20.27
2018-07-11T21:26:33.794Z,25.20
2018-07-11T21:29:02.208Z,25.30
2018-07-11T21:31:30.757Z,30.83
2018-07-11T21:33:59.198Z,25.47
2018-07-11T21:36:27.637Z,31.13
2018-07-11T21:38:56.078Z,31.37
2018-07-11T21:41:24.573Z,26.00
2018-07-11T21:43:53.025Z,27.87
2018-07-11T21:46:21.792Z,26.07
2018-07-11T21:48:50.236Z,25.77
2018-07-11T21:51:18.699Z,28.27
2018-07-11T21:53:47.100Z,29.00
2018-07-11T21:56:15.578Z,28.80
2018-07-11T21:58:43.992Z,26.37
2018-07-11T22:01:13.028Z,28.00
2018-07-11T22:03:41.524Z,32.37
2018-07-11T22:06:09.975Z,34.00
2018-07-11T22:08:38.422Z,38.20
2018-07-11T22:11:07.150Z,33.53
2018-07-11T22:13:35.572Z,35.47
2018-07-11T22:16:04.024Z,38.80
2018-07-11T22:18:35.816Z,32.80
2018-07-11T22:21:04.121Z,31.00
2018-07-11T22:23:31.515Z,31.77
2018-07-11T22:25:59.035Z,29.73
2018-07-11T22:28:26.340Z,32.80
2018-07-11T22:30:53.618Z,31.50
2018-07-11T22:33:20.969Z,31.90
2018-07-11T22:35:48.322Z,30.70
2018-07-11T22:38:15.640Z,30.70
2018-07-11T22:40:43.676Z,35.13
2018-07-11T22:43:11.072Z,32.13
2018-07-11T22:45:38.353Z,33.50
2018-07-11T22:48:05.650Z,34.57
2018-07-11T22:50:33.034Z,37.73
2018-07-11T22:53:00.347Z,37.10
2018-07-11T22:55:27.671Z,32.53
2018-07-11T22:57:55.004Z,35.37
2018-07-11T23:00:22.309Z,36.67
2018-07-11T23:02:49.591Z,35.60
2018-07-11T23:05:16.924Z,32.23
2018-07-11T23:07:44.229Z,33.03
2018-07-11T23:10:12.407Z,34.17
2018-07-11T23:12:39.788Z,32.00
2018-07-11T23:15:07.091Z,38.23
2018-07-11T23:17:34.459Z,32.97
2018-07-11T23:20:01.738Z,33.67
2018-07-11T23:22:29.073Z,31.40
2018-07-11T23:24:56.374Z,30.80
2018-07-11T23:27:23.778Z,38.53
2018-07-11T23:29:51.092Z,32.80
2018-07-11T23:32:18.419Z,31.27
2018-07-11T23:34:45.716Z,31.53
2018-07-11T23:37:13.046Z,34.23
2018-07-11T23:39:40.326Z,31.17
2018-07-11T23:42:07.655Z,33.10
2018-07-11T23:44:34.964Z,34.10
2018-07-11T23:47:02.253Z,36.00
2018-07-11T23:49:29.571Z,36.33
2018-07-11T23:51:56.920Z,43.90
2018-07-11T23:54:24.224Z,39.03
2018-07-11T23:56:51.841Z,35.77
2018-07-11T23:59:20.381Z,40.17
